Time;durP1;ratioP1;P1;durP2;ratioP2;P2;SDS_P1;SDS_P2;PMS_P1;PMS_P2;Temp;Humidity;BMP_temperature;BMP_pressure;BME280_temperature;BME280_humidity;BME280_pressure;Samples;Min_cycle;Max_cycle;Signal;HPM_P1;HPM_P2
2023/12/24 00:01:05;;;;;;;;;;;11.10;99.90;;;;;;5054058;28;20283;-75
2023/12/24 00:03:31;;;;;;;;;;;11.10;99.90;;;;;;5055293;28;19909;-76
2023/12/24 00:05:56;;;;;;;;;;;11.10;99.90;;;;;;5053940;28;19909;-75
2023/12/24 00:08:22;;;;;;;;;;;11.20;99.90;;;;;;5054337;28;19919;-77
2023/12/24 00:10:47;;;;;;;;;;;11.20;99.90;;;;;;5055772;28;20287;-76
2023/12/24 00:13:13;;;;;;;;;;;11.20;99.90;;;;;;5054010;28;19916;-75
2023/12/24 00:15:38;;;;;;;;;;;11.30;99.90;;;;;;5053938;28;19976;-75
2023/12/24 00:18:04;;;;;;;;;;;11.30;99.90;;;;;;5053832;28;20317;-76
2023/12/24 00:20:29;;;;;;;;;;;11.30;99.90;;;;;;5053878;28;19915;-79
2023/12/24 00:23:08;;;;;;;;;;;11.40;99.90;;;;;;5049949;28;19919;-76
2023/12/24 00:25:34;;;;;;;;;;;11.40;99.90;;;;;;5040784;28;20297;-76
2023/12/24 00:27:59;;;;;;;;;;;11.40;99.90;;;;;;5044558;28;19912;-75
2023/12/24 00:30:28;;;;;;;;;;;11.40;99.90;;;;;;5058129;28;20272;-75
2023/12/24 00:32:54;;;;;;;;;;;11.50;99.90;;;;;;5074516;28;19908;-75
2023/12/24 00:35:20;;;;;;;;;;;11.40;99.90;;;;;;5056696;28;20272;-75
2023/12/24 00:37:45;;;;;;;;;;;11.50;99.90;;;;;;5057032;28;19974;-75
2023/12/24 00:40:11;;;;;;;;;;;11.50;99.90;;;;;;5074660;28;19960;-76
2023/12/24 00:42:36;;;;;;;;;;;11.50;99.90;;;;;;5056832;28;20011;-76
2023/12/24 00:45:02;;;;;;;;;;;11.50;99.90;;;;;;5073280;28;20456;-75
2023/12/24 00:47:27;;;;;;;;;;;11.50;99.90;;;;;;5072927;28;19916;-75
2023/12/24 00:49:53;;;;;;;;;;;11.60;99.90;;;;;;5074396;28;19912;-76
2023/12/24 00:52:18;;;;;;;;;;;11.50;99.90;;;;;;5056752;28;20271;-81
2023/12/24 00:54:44;;;;;;;;;;;11.60;99.90;;;;;;5056327;28;19942;-76
2023/12/24 00:57:09;;;;;;;;;;;11.60;99.90;;;;;;5042232;28;20301;-75
2023/12/24 00:59:35;;;;;;;;;;;11.60;99.90;;;;;;5053579;28;19909;-76
2023/12/24 01:02:00;;;;;;;;;;;11.50;99.90;;;;;;5036568;28;19909;-80
2023/12/24 01:04:26;;;;;;;;;;;11.50;99.90;;;;;;5054192;28;19908;-75
2023/12/24 01:06:51;;;;;;;;;;;11.60;99.90;;;;;;5052840;28;19920;-75
2023/12/24 01:09:17;;;;;;;;;;;11.60;99.90;;;;;;5052062;28;20318;-81
2023/12/24 01:11:42;;;;;;;;;;;11.60;99.90;;;;;;5036287;28;19956;-76
2023/12/24 01:14:09;;;;;;;;;;;11.60;99.90;;;;;;5036411;28;19999;-75
2023/12/24 01:16:38;;;;;;;;;;;11.70;99.90;;;;;;5054400;28;19915;-76
2023/12/24 01:19:04;;;;;;;;;;;11.70;99.90;;;;;;5036718;28;19972;-76
2023/12/24 01:21:29;;;;;;;;;;;11.70;99.90;;;;;;5036699;28;19917;-75
2023/12/24 01:23:55;;;;;;;;;;;11.70;99.90;;;;;;5041943;28;19913;-76
2023/12/24 01:26:20;;;;;;;;;;;11.70;99.90;;;;;;5036139;28;19917;-75
2023/12/24 01:28:46;;;;;;;;;;;11.70;99.90;;;;;;5015930;28;19917;-75
2023/12/24 01:31:11;;;;;;;;;;;11.60;99.90;;;;;;5046829;28;19921;-80
2023/12/24 01:33:37;;;;;;;;;;;11.60;99.90;;;;;;5056329;28;19912;-81
2023/12/24 01:36:02;;;;;;;;;;;11.60;99.90;;;;;;5055469;28;19936;-76
2023/12/24 01:38:28;;;;;;;;;;;11.60;99.90;;;;;;5073156;28;20399;-76
2023/12/24 01:40:53;;;;;;;;;;;11.60;99.90;;;;;;5055802;28;20007;-76
2023/12/24 01:43:19;;;;;;;;;;;11.60;99.90;;;;;;5056026;28;19981;-81
2023/12/24 01:45:44;;;;;;;;;;;11.60;99.90;;;;;;5056230;28;19962;-81
2023/12/24 01:48:11;;;;;;;;;;;11.70;99.90;;;;;;5055743;28;20372;-76
2023/12/24 01:50:37;;;;;;;;;;;11.70;99.90;;;;;;5055728;28;19966;-75
2023/12/24 01:53:03;;;;;;;;;;;11.70;99.90;;;;;;5055825;28;19912;-76
2023/12/24 01:55:29;;;;;;;;;;;11.80;99.90;;;;;;5056153;28;19916;-76
2023/12/24 01:57:55;;;;;;;;;;;11.80;99.90;;;;;;5073621;28;19909;-80
2023/12/24 02:00:20;;;;;;;;;;;11.80;99.90;;;;;;5073897;28;19909;-80
2023/12/24 02:02:47;;;;;;;;;;;11.80;99.90;;;;;;5055591;28;19909;-75
2023/12/24 02:05:13;;;;;;;;;;;11.80;99.90;;;;;;5055565;28;19920;-76
2023/12/24 02:07:39;;;;;;;;;;;11.80;99.90;;;;;;5055498;28;20283;-75
2023/12/24 02:10:05;;;;;;;;;;;11.80;99.90;;;;;;5055801;28;19917;-76
2023/12/24 02:12:31;;;;;;;;;;;11.80;99.90;;;;;;5057353;28;19916;-76
2023/12/24 02:14:56;;;;;;;;;;;11.80;99.90;;;;;;5059942;28;19909;-76
2023/12/24 02:17:22;;;;;;;;;;;11.90;99.90;;;;;;5059720;28;20329;-81
2023/12/24 02:19:48;;;;;;;;;;;11.90;99.90;;;;;;5059196;28;19908;-80
2023/12/24 02:22:13;;;;;;;;;;;11.90;99.90;;;;;;5058360;28;20454;-75
2023/12/24 02:24:39;;;;;;;;;;;11.90;99.90;;;;;;5056968;28;19909;-75
2023/12/24 02:27:08;;;;;;;;;;;11.90;99.90;;;;;;5059196;28;19920;-76
2023/12/24 02:29:38;;;;;;;;;;;11.90;99.90;;;;;;5059501;28;20028;-75
2023/12/24 02:32:10;;;;;;;;;;;11.90;99.90;;;;;;5077476;28;20337;-75
2023/12/24 02:34:37;;;;;;;;;;;11.90;99.90;;;;;;5059345;28;19908;-80
2023/12/24 02:37:03;;;;;;;;;;;11.80;99.90;;;;;;5077499;28;19915;-75
2023/12/24 02:39:29;;;;;;;;;;;11.80;99.90;;;;;;5078635;28;19931;-80
2023/12/24 02:41:54;;;;;;;;;;;11.70;99.90;;;;;;5079075;28;19973;-80
2023/12/24 02:44:19;;;;;;;;;;;11.70;99.90;;;;;;5079003;28;19915;-75
2023/12/24 02:46:45;;;;;;;;;;;11.70;99.90;;;;;;5078679;28;19909;-75
2023/12/24 02:49:11;;;;;;;;;;;11.70;99.90;;;;;;5079082;28;19965;-81
2023/12/24 02:51:36;;;;;;;;;;;11.70;99.90;;;;;;5097348;28;19912;-75
2023/12/24 02:54:02;;;;;;;;;;;11.70;99.90;;;;;;5078621;28;19908;-75
2023/12/24 02:56:27;;;;;;;;;;;11.70;99.90;;;;;;5070252;28;20432;-80
2023/12/24 02:58:53;;;;;;;;;;;11.60;99.90;;;;;;5058706;28;19920;-80
2023/12/24 03:01:18;;;;;;;;;;;11.60;99.90;;;;;;5058863;28;19912;-80
2023/12/24 03:03:45;;;;;;;;;;;11.60;99.90;;;;;;5076721;28;20375;-80
2023/12/24 03:06:11;;;;;;;;;;;11.60;99.90;;;;;;5074126;28;19908;-75
2023/12/24 03:08:36;;;;;;;;;;;11.60;99.90;;;;;;5078307;28;20464;-81
2023/12/24 03:11:02;;;;;;;;;;;11.60;99.90;;;;;;5078570;28;19915;-75
2023/12/24 03:13:28;;;;;;;;;;;11.60;99.90;;;;;;5078481;28;19919;-76
2023/12/24 03:15:53;;;;;;;;;;;11.50;99.90;;;;;;5078243;28;19962;-76
2023/12/24 03:18:19;;;;;;;;;;;11.50;99.90;;;;;;5078306;28;20357;-76
2023/12/24 03:20:44;;;;;;;;;;;11.50;99.90;;;;;;5078300;28;20719;-80
2023/12/24 03:23:10;;;;;;;;;;;11.50;99.90;;;;;;5066882;28;19908;-80
2023/12/24 03:25:35;;;;;;;;;;;11.50;99.90;;;;;;5038063;28;19960;-75
2023/12/24 03:28:02;;;;;;;;;;;11.50;99.90;;;;;;5038496;28;19915;-75
2023/12/24 03:30:27;;;;;;;;;;;11.50;99.90;;;;;;5038173;28;19925;-75
2023/12/24 03:32:53;;;;;;;;;;;11.50;99.90;;;;;;5056076;28;20433;-75
2023/12/24 03:35:19;;;;;;;;;;;11.40;99.90;;;;;;5046403;28;19961;-75
2023/12/24 03:37:44;;;;;;;;;;;11.40;99.90;;;;;;5077917;28;19908;-75
2023/12/24 03:40:10;;;;;;;;;;;11.40;99.90;;;;;;5077753;28;19956;-75
2023/12/24 03:42:35;;;;;;;;;;;11.40;99.90;;;;;;5078190;28;19908;-76
2023/12/24 03:45:04;;;;;;;;;;;11.40;99.90;;;;;;5078395;28;19959;-75
2023/12/24 03:47:30;;;;;;;;;;;11.30;99.90;;;;;;5078066;28;19908;-80
2023/12/24 03:49:55;;;;;;;;;;;11.30;99.90;;;;;;5096266;28;19912;-79
2023/12/24 03:52:21;;;;;;;;;;;11.30;99.90;;;;;;5095928;28;19938;-76
2023/12/24 03:54:46;;;;;;;;;;;11.30;99.90;;;;;;5077584;28;19908;-75
2023/12/24 03:57:12;;;;;;;;;;;11.30;99.90;;;;;;5076784;28;19915;-76
2023/12/24 03:59:38;;;;;;;;;;;11.30;99.90;;;;;;5077622;28;19908;-75
2023/12/24 04:02:03;;;;;;;;;;;11.20;99.90;;;;;;5077514;28;19958;-75
2023/12/24 04:04:29;;;;;;;;;;;11.20;99.90;;;;;;5077469;28;19909;-80
2023/12/24 04:06:55;;;;;;;;;;;11.20;99.90;;;;;;5095835;28;20360;-76
2023/12/24 04:09:21;;;;;;;;;;;11.20;99.90;;;;;;5087141;28;19913;-75
2023/12/24 04:11:50;;;;;;;;;;;11.20;99.90;;;;;;5075154;28;19908;-75
2023/12/24 04:14:16;;;;;;;;;;;11.20;99.90;;;;;;5057151;28;19908;-79
2023/12/24 04:16:41;;;;;;;;;;;11.20;99.90;;;;;;5057544;28;19909;-79
2023/12/24 04:19:07;;;;;;;;;;;11.30;99.90;;;;;;5057171;28;19909;-80
2023/12/24 04:21:33;;;;;;;;;;;11.30;99.90;;;;;;5075253;28;19927;-75
2023/12/24 04:23:59;;;;;;;;;;;11.30;99.90;;;;;;5042472;28;19952;-80
2023/12/24 04:26:25;;;;;;;;;;;11.30;99.90;;;;;;5055123;28;19913;-75
2023/12/24 04:28:51;;;;;;;;;;;11.20;99.90;;;;;;5053647;28;19924;-75
2023/12/24 04:31:16;;;;;;;;;;;11.20;99.90;;;;;;5065001;28;19921;-75
2023/12/24 04:33:42;;;;;;;;;;;11.30;99.90;;;;;;5056718;28;19912;-79
2023/12/24 04:36:08;;;;;;;;;;;11.30;99.90;;;;;;5067568;28;20382;-75
2023/12/24 04:38:34;;;;;;;;;;;11.30;99.90;;;;;;5076503;28;19919;-75
2023/12/24 04:40:59;;;;;;;;;;;11.30;99.90;;;;;;5076845;28;19912;-80
2023/12/24 04:43:25;;;;;;;;;;;11.30;99.90;;;;;;5076630;28;19913;-75
2023/12/24 04:45:50;;;;;;;;;;;11.30;99.90;;;;;;5076954;28;19909;-76
2023/12/24 04:48:16;;;;;;;;;;;11.30;99.90;;;;;;5094842;28;19952;-75
2023/12/24 04:50:42;;;;;;;;;;;11.30;99.90;;;;;;5057206;28;20371;-75
2023/12/24 04:53:07;;;;;;;;;;;11.30;99.90;;;;;;5056691;28;19959;-79
2023/12/24 04:55:35;;;;;;;;;;;11.30;99.90;;;;;;5056853;28;20290;-75
2023/12/24 04:58:00;;;;;;;;;;;11.20;99.90;;;;;;5056727;28;19908;-75
2023/12/24 05:00:26;;;;;;;;;;;11.20;99.90;;;;;;5056346;28;19915;-75
2023/12/24 05:02:52;;;;;;;;;;;11.20;99.90;;;;;;5056337;28;19967;-75
2023/12/24 05:05:17;;;;;;;;;;;11.10;99.90;;;;;;5056283;28;19908;-80
2023/12/24 05:07:43;;;;;;;;;;;11.20;99.90;;;;;;5074305;28;19912;-75
2023/12/24 05:10:08;;;;;;;;;;;11.20;99.90;;;;;;5074212;28;19920;-75
2023/12/24 05:12:34;;;;;;;;;;;11.20;99.90;;;;;;5074195;28;19908;-75
2023/12/24 05:15:00;;;;;;;;;;;11.10;99.90;;;;;;5056118;28;19959;-75
2023/12/24 05:17:26;;;;;;;;;;;11.10;99.90;;;;;;5056047;28;19916;-75
2023/12/24 05:19:51;;;;;;;;;;;11.10;99.90;;;;;;5056019;28;19909;-75
2023/12/24 05:22:17;;;;;;;;;;;11.10;99.90;;;;;;5053797;28;19919;-76
2023/12/24 05:24:42;;;;;;;;;;;11.10;99.90;;;;;;5070417;28;20398;-75
2023/12/24 05:27:08;;;;;;;;;;;11.10;99.90;;;;;;5074248;28;19909;-75
2023/12/24 05:29:34;;;;;;;;;;;11.10;99.90;;;;;;5055337;28;20272;-75
2023/12/24 05:31:59;;;;;;;;;;;11.10;99.90;;;;;;5055660;28;19924;-80
2023/12/24 05:34:25;;;;;;;;;;;11.10;99.90;;;;;;5056002;28;19915;-75
2023/12/24 05:36:53;;;;;;;;;;;11.00;99.90;;;;;;5072531;28;20336;-76
2023/12/24 05:39:19;;;;;;;;;;;11.00;99.90;;;;;;5082273;28;19912;-80
2023/12/24 05:41:45;;;;;;;;;;;11.00;99.90;;;;;;5073981;28;19909;-80
2023/12/24 05:44:10;;;;;;;;;;;10.90;99.90;;;;;;5055928;28;20000;-75
2023/12/24 05:46:36;;;;;;;;;;;10.90;99.90;;;;;;5055346;28;19961;-75
2023/12/24 05:49:01;;;;;;;;;;;10.80;99.90;;;;;;5070184;28;19968;-75
2023/12/24 05:51:27;;;;;;;;;;;10.70;99.90;;;;;;5058098;28;19913;-75
2023/12/24 05:53:52;;;;;;;;;;;10.60;99.90;;;;;;5055843;28;20011;-75
2023/12/24 05:56:18;;;;;;;;;;;10.60;99.90;;;;;;5055583;28;19908;-80
2023/12/24 05:58:43;;;;;;;;;;;10.60;99.90;;;;;;5073784;28;19916;-75
2023/12/24 06:01:09;;;;;;;;;;;10.50;99.90;;;;;;5055594;28;19949;-75
2023/12/24 06:03:34;;;;;;;;;;;10.50;99.90;;;;;;5055555;28;19909;-75
2023/12/24 06:06:00;;;;;;;;;;;10.50;99.90;;;;;;5056079;28;20363;-80
2023/12/24 06:08:25;;;;;;;;;;;10.50;99.90;;;;;;5055999;28;19909;-75
2023/12/24 06:10:51;;;;;;;;;;;10.40;99.90;;;;;;5073327;28;20296;-75
2023/12/24 06:13:16;;;;;;;;;;;10.40;99.90;;;;;;5055496;28;19991;-80
2023/12/24 06:15:42;;;;;;;;;;;10.40;99.90;;;;;;5055404;28;19914;-75
2023/12/24 06:18:09;;;;;;;;;;;10.40;99.90;;;;;;5055326;28;19913;-75
2023/12/24 06:20:36;;;;;;;;;;;10.40;99.90;;;;;;5055235;28;19908;-80
2023/12/24 06:23:02;;;;;;;;;;;10.50;99.90;;;;;;5070131;28;19913;-75
2023/12/24 06:25:28;;;;;;;;;;;10.40;99.90;;;;;;5055066;28;19912;-75
2023/12/24 06:27:53;;;;;;;;;;;10.40;99.90;;;;;;5055258;28;19912;-75
2023/12/24 06:30:20;;;;;;;;;;;10.50;99.90;;;;;;5055128;28;19928;-79
2023/12/24 06:32:46;;;;;;;;;;;10.50;99.90;;;;;;5055301;28;20394;-75
2023/12/24 06:35:12;;;;;;;;;;;10.40;99.90;;;;;;5052081;28;19909;-75
2023/12/24 06:37:38;;;;;;;;;;;10.40;99.90;;;;;;5035438;28;19915;-75
2023/12/24 06:40:04;;;;;;;;;;;10.40;99.90;;;;;;5034991;28;20363;-75
2023/12/24 06:42:30;;;;;;;;;;;10.40;99.90;;;;;;5063877;28;19919;-80
2023/12/24 06:44:55;;;;;;;;;;;10.40;99.90;;;;;;5056753;28;19909;-75
2023/12/24 06:47:21;;;;;;;;;;;10.40;99.90;;;;;;5035237;28;20287;-75
2023/12/24 06:49:46;;;;;;;;;;;10.30;99.90;;;;;;5051724;28;19923;-75
2023/12/24 06:52:12;;;;;;;;;;;10.40;99.90;;;;;;5034289;28;20360;-75
2023/12/24 06:54:37;;;;;;;;;;;10.40;99.90;;;;;;5035185;28;19952;-75
2023/12/24 06:57:03;;;;;;;;;;;10.50;99.90;;;;;;5035084;28;19920;-75
2023/12/24 06:59:29;;;;;;;;;;;10.40;99.90;;;;;;5037604;28;19912;-75
2023/12/24 07:01:54;;;;;;;;;;;10.40;99.90;;;;;;5056766;28;19915;-80
2023/12/24 07:04:23;;;;;;;;;;;10.40;99.90;;;;;;5056609;28;20372;-75
2023/12/24 07:06:48;;;;;;;;;;;10.40;99.90;;;;;;5037880;28;19909;-75
2023/12/24 07:09:14;;;;;;;;;;;10.40;99.90;;;;;;5045378;28;19934;-75
2023/12/24 07:11:42;;;;;;;;;;;10.50;99.90;;;;;;5058291;28;20322;-80
2023/12/24 07:14:08;;;;;;;;;;;10.60;99.90;;;;;;5058316;28;19952;-79
2023/12/24 07:16:33;;;;;;;;;;;10.60;99.90;;;;;;5058603;28;19908;-75
2023/12/24 07:19:02;;;;;;;;;;;10.70;99.90;;;;;;5058965;28;20284;-75
2023/12/24 07:21:28;;;;;;;;;;;10.80;99.90;;;;;;5058330;28;19908;-75
2023/12/24 07:23:53;;;;;;;;;;;10.80;99.90;;;;;;5054403;28;19919;-75
2023/12/24 07:26:20;;;;;;;;;;;11.00;99.90;;;;;;5055105;28;19913;-80
2023/12/24 07:28:46;;;;;;;;;;;11.00;99.90;;;;;;5057970;28;19920;-75
2023/12/24 07:31:13;;;;;;;;;;;11.00;99.90;;;;;;5057856;28;19921;-80
2023/12/24 07:33:38;;;;;;;;;;;11.00;99.90;;;;;;5057379;28;20003;-75
2023/12/24 07:36:04;;;;;;;;;;;10.90;99.90;;;;;;5055286;28;19951;-80
2023/12/24 07:38:30;;;;;;;;;;;11.00;99.90;;;;;;5037818;28;19909;-75
2023/12/24 07:40:56;;;;;;;;;;;11.00;99.90;;;;;;5055902;28;19913;-75
2023/12/24 07:43:22;;;;;;;;;;;11.00;99.90;;;;;;5037913;28;19909;-75
2023/12/24 07:45:47;;;;;;;;;;;11.00;99.90;;;;;;5037956;28;20022;-75
2023/12/24 07:48:13;;;;;;;;;;;11.00;99.90;;;;;;5076816;28;20404;-80
2023/12/24 07:50:39;;;;;;;;;;;11.10;99.90;;;;;;5077804;28;19919;-75
2023/12/24 07:53:04;;;;;;;;;;;11.10;99.90;;;;;;5077860;28;19912;-75
2023/12/24 07:55:30;;;;;;;;;;;11.10;99.90;;;;;;5077346;28;20358;-81
2023/12/24 07:57:55;;;;;;;;;;;11.20;99.90;;;;;;5057434;28;19920;-75
2023/12/24 08:00:21;;;;;;;;;;;11.10;99.90;;;;;;5057705;28;19908;-79
2023/12/24 08:02:47;;;;;;;;;;;11.10;99.90;;;;;;5057435;28;20473;-75
2023/12/24 08:05:13;;;;;;;;;;;11.10;99.90;;;;;;5057487;28;19919;-79
2023/12/24 08:07:39;;;;;;;;;;;11.10;99.90;;;;;;5057382;28;19908;-80
2023/12/24 08:10:05;;;;;;;;;;;11.10;99.90;;;;;;5056562;28;20325;-79
2023/12/24 08:12:31;;;;;;;;;;;11.10;99.90;;;;;;5057099;28;19915;-75
2023/12/24 08:14:56;;;;;;;;;;;11.10;99.90;;;;;;5057350;28;20370;-75
2023/12/24 08:17:22;;;;;;;;;;;11.10;99.90;;;;;;5057140;28;19924;-75
2023/12/24 08:19:47;;;;;;;;;;;11.10;99.90;;;;;;5057175;28;19908;-80
2023/12/24 08:22:13;;;;;;;;;;;11.20;99.90;;;;;;5056129;28;19935;-79
2023/12/24 08:24:38;;;;;;;;;;;11.20;99.90;;;;;;5045601;28;19964;-79
2023/12/24 08:27:04;;;;;;;;;;;11.20;99.90;;;;;;5037082;28;19936;-75
2023/12/24 08:29:31;;;;;;;;;;;11.20;99.90;;;;;;5037203;28;19938;-75
2023/12/24 08:31:57;;;;;;;;;;;11.20;99.90;;;;;;5055118;28;19943;-75
2023/12/24 08:34:23;;;;;;;;;;;11.20;99.90;;;;;;5036964;28;19909;-75
2023/12/24 08:36:48;;;;;;;;;;;11.30;99.90;;;;;;5069198;28;19919;-75
2023/12/24 08:39:14;;;;;;;;;;;11.40;99.90;;;;;;5076291;28;19908;-75
2023/12/24 08:41:40;;;;;;;;;;;11.40;99.90;;;;;;5076841;28;19912;-75
2023/12/24 08:44:05;;;;;;;;;;;11.40;99.90;;;;;;5094777;28;19954;-75
2023/12/24 08:46:31;;;;;;;;;;;11.40;99.90;;;;;;5076512;28;19908;-75
2023/12/24 08:48:57;;;;;;;;;;;11.40;99.90;;;;;;5076341;28;20324;-80
2023/12/24 08:51:23;;;;;;;;;;;11.50;99.90;;;;;;5076591;28;20117;-75
2023/12/24 08:53:49;;;;;;;;;;;11.50;99.90;;;;;;5094693;28;19937;-80
2023/12/24 08:56:14;;;;;;;;;;;11.50;99.90;;;;;;5076278;28;19912;-75
2023/12/24 08:58:43;;;;;;;;;;;11.50;99.90;;;;;;5076383;28;19967;-80
2023/12/24 09:01:09;;;;;;;;;;;11.40;99.90;;;;;;5067452;28;19952;-80
2023/12/24 09:03:34;;;;;;;;;;;11.40;99.90;;;;;;5069210;28;20375;-75
2023/12/24 09:06:00;;;;;;;;;;;11.50;99.90;;;;;;5071143;28;19961;-75
2023/12/24 09:08:26;;;;;;;;;;;11.60;99.90;;;;;;5075496;28;19915;-79
2023/12/24 09:10:55;;;;;;;;;;;11.70;99.90;;;;;;5056127;28;19912;-75
2023/12/24 09:13:21;;;;;;;;;;;11.80;99.90;;;;;;5056024;28;20011;-75
2023/12/24 09:15:46;;;;;;;;;;;11.90;99.90;;;;;;5056259;28;20378;-75
2023/12/24 09:18:12;;;;;;;;;;;12.00;99.90;;;;;;5055989;28;19912;-75
2023/12/24 09:20:37;;;;;;;;;;;12.00;99.90;;;;;;5055325;28;19908;-75
2023/12/24 09:23:03;;;;;;;;;;;12.00;99.90;;;;;;5049131;28;20268;-75
2023/12/24 09:25:28;;;;;;;;;;;12.00;99.90;;;;;;5062249;28;20050;-75
2023/12/24 09:27:54;;;;;;;;;;;12.10;99.90;;;;;;5074917;28;20282;-80
2023/12/24 09:30:21;;;;;;;;;;;12.10;99.90;;;;;;5056032;28;19920;-75
2023/12/24 09:32:46;;;;;;;;;;;12.20;99.90;;;;;;5055838;28;20400;-75
2023/12/24 09:35:12;;;;;;;;;;;12.30;99.90;;;;;;5076759;28;19908;-76
2023/12/24 09:37:37;;;;;;;;;;;12.40;99.90;;;;;;5094050;28;20374;-75
2023/12/24 09:40:03;;;;;;;;;;;12.40;99.90;;;;;;5076195;28;20009;-75
2023/12/24 09:42:29;;;;;;;;;;;12.40;99.90;;;;;;5094892;28;19908;-75
2023/12/24 09:44:54;;;;;;;;;;;12.40;99.90;;;;;;5056818;28;19912;-79
2023/12/24 09:47:23;;;;;;;;;;;12.30;99.90;;;;;;5052546;28;19909;-75
2023/12/24 09:49:48;;;;;;;;;;;12.30;99.90;;;;;;5053795;28;19966;-80
2023/12/24 09:52:14;;;;;;;;;;;12.20;99.90;;;;;;5053004;28;20287;-75
2023/12/24 09:54:41;;;;;;;;;;;12.20;99.90;;;;;;5052875;28;19955;-80
2023/12/24 09:57:07;;;;;;;;;;;12.30;99.90;;;;;;5035672;28;19920;-75
2023/12/24 09:59:32;;;;;;;;;;;12.30;99.90;;;;;;5053095;28;19909;-79
2023/12/24 10:01:58;;;;;;;;;;;12.20;99.90;;;;;;5052644;28;20332;-80
2023/12/24 10:04:23;;;;;;;;;;;12.10;99.90;;;;;;5056051;28;19966;-79
2023/12/24 10:06:52;;;;;;;;;;;12.20;99.90;;;;;;5093878;28;19908;-75
2023/12/24 10:09:21;;;;;;;;;;;12.20;99.90;;;;;;5075704;28;19919;-75
2023/12/24 10:12:04;;;;;;;;;;;12.20;99.90;;;;;;5076722;28;19915;-75
2023/12/24 10:14:29;;;;;;;;;;;12.20;99.90;;;;;;5076454;28;19958;-80
2023/12/24 10:16:55;;;;;;;;;;;12.20;99.90;;;;;;5076137;28;19943;-80
2023/12/24 10:19:24;;;;;;;;;;;12.30;99.90;;;;;;5076511;28;20007;-75
2023/12/24 10:22:08;;;;;;;;;;;12.40;99.90;;;;;;5075894;28;19908;-80
2023/12/24 10:24:41;;;;;;;;;;;12.40;99.90;;;;;;5055435;28;20325;-80
2023/12/24 10:27:08;;;;;;;;;;;12.40;99.90;;;;;;5036584;28;19912;-80
2023/12/24 10:29:37;;;;;;;;;;;12.30;99.90;;;;;;5035782;28;19925;-79
2023/12/24 10:32:03;;;;;;;;;;;12.30;99.90;;;;;;5045437;28;19967;-76
2023/12/24 10:34:30;;;;;;;;;;;12.30;99.90;;;;;;5058394;28;20009;-79
2023/12/24 10:36:58;;;;;;;;;;;12.20;99.90;;;;;;5041932;28;20058;-80
2023/12/24 10:39:24;;;;;;;;;;;12.10;99.90;;;;;;5039395;28;19920;-80
2023/12/24 10:41:54;;;;;;;;;;;12.10;99.90;;;;;;5040441;28;20295;-80
2023/12/24 10:44:21;;;;;;;;;;;12.20;99.90;;;;;;5040480;28;19909;-75
2023/12/24 10:46:47;;;;;;;;;;;12.30;99.90;;;;;;5057407;28;19913;-75
2023/12/24 10:49:12;;;;;;;;;;;12.50;99.90;;;;;;5039144;28;19913;-79
2023/12/24 10:51:39;;;;;;;;;;;12.50;99.90;;;;;;5039192;28;19955;-75
2023/12/24 10:54:07;;;;;;;;;;;12.70;99.90;;;;;;5057290;28;20036;-80
2023/12/24 10:56:37;;;;;;;;;;;12.80;99.90;;;;;;5039209;28;20460;-76
2023/12/24 10:59:06;;;;;;;;;;;12.80;99.90;;;;;;5038766;28;19908;-75
2023/12/24 11:01:32;;;;;;;;;;;12.80;99.90;;;;;;5039275;28;20283;-75
2023/12/24 11:03:58;;;;;;;;;;;13.00;99.90;;;;;;5039095;28;19908;-79
2023/12/24 11:06:38;;;;;;;;;;;13.20;99.90;;;;;;5056884;28;19920;-79
2023/12/24 11:09:04;;;;;;;;;;;13.20;99.90;;;;;;5040785;28;20359;-78
2023/12/24 11:11:48;;;;;;;;;;;13.30;99.90;;;;;;5056472;28;19909;-79
2023/12/24 11:14:33;;;;;;;;;;;13.10;99.90;;;;;;5057362;28;19912;-80
2023/12/24 11:16:59;;;;;;;;;;;12.90;99.90;;;;;;5038960;28;19932;-80
2023/12/24 11:19:24;;;;;;;;;;;12.90;99.90;;;;;;5055108;28;19952;-75
2023/12/24 11:22:09;;;;;;;;;;;12.90;99.90;;;;;;5057081;28;20012;-80
2023/12/24 11:24:41;;;;;;;;;;;13.00;99.90;;;;;;5043604;28;19920;-80
2023/12/24 11:27:08;;;;;;;;;;;13.20;99.90;;;;;;5038369;28;19913;-80
2023/12/24 11:29:46;;;;;;;;;;;13.30;99.90;;;;;;5055699;28;19947;-75
2023/12/24 11:32:23;;;;;;;;;;;13.20;99.90;;;;;;5055842;28;19927;-76
2023/12/24 11:34:49;;;;;;;;;;;13.00;99.90;;;;;;5037970;28;19909;-79
2023/12/24 11:37:25;;;;;;;;;;;13.10;99.90;;;;;;5057768;28;20004;-80
2023/12/24 11:40:12;;;;;;;;;;;13.20;99.90;;;;;;5058118;28;20418;-75
2023/12/24 11:42:44;;;;;;;;;;;13.20;99.90;;;;;;5057737;28;19923;-80
2023/12/24 11:45:21;;;;;;;;;;;13.60;99.90;;;;;;5056754;28;19984;-79
2023/12/24 11:47:47;;;;;;;;;;;13.50;99.90;;;;;;5075716;28;19909;-80
2023/12/24 11:50:13;;;;;;;;;;;13.40;99.90;;;;;;5057747;28;20018;-80
2023/12/24 11:52:42;;;;;;;;;;;13.40;99.90;;;;;;5058140;28;19959;-79
2023/12/24 11:55:07;;;;;;;;;;;13.40;99.90;;;;;;5058172;28;19935;-75
2023/12/24 11:57:33;;;;;;;;;;;13.20;99.90;;;;;;5057746;28;19912;-79
2023/12/24 11:59:59;;;;;;;;;;;13.20;99.90;;;;;;5057511;28;19991;-79
2023/12/24 12:02:25;;;;;;;;;;;13.20;99.90;;;;;;5075986;28;19992;-75
2023/12/24 12:04:50;;;;;;;;;;;13.20;99.90;;;;;;5058040;28;19909;-79
2023/12/24 12:07:16;;;;;;;;;;;13.20;99.90;;;;;;5057544;28;20404;-75
2023/12/24 12:09:41;;;;;;;;;;;13.20;99.90;;;;;;5057071;28;19919;-80
2023/12/24 12:12:07;;;;;;;;;;;13.30;99.90;;;;;;5057277;28;19908;-79
2023/12/24 12:14:32;;;;;;;;;;;13.20;99.90;;;;;;5057110;28;20386;-80
2023/12/24 12:16:58;;;;;;;;;;;13.30;99.90;;;;;;5057678;28;19909;-80
2023/12/24 12:19:23;;;;;;;;;;;13.10;99.90;;;;;;5057843;28;19966;-75
2023/12/24 12:21:49;;;;;;;;;;;13.10;99.90;;;;;;5075085;28;19909;-79
2023/12/24 12:24:14;;;;;;;;;;;13.30;99.90;;;;;;5052479;28;19962;-76
2023/12/24 12:26:40;;;;;;;;;;;13.40;99.90;;;;;;5039799;28;19935;-80
2023/12/24 12:29:05;;;;;;;;;;;13.40;99.90;;;;;;5036946;28;19913;-80
2023/12/24 12:31:31;;;;;;;;;;;13.30;99.90;;;;;;5061194;28;19920;-75
2023/12/24 12:33:56;;;;;;;;;;;13.10;99.90;;;;;;5057092;28;20314;-75
2023/12/24 12:36:22;;;;;;;;;;;13.10;99.90;;;;;;5074944;28;20272;-79
2023/12/24 12:38:48;;;;;;;;;;;13.50;99.90;;;;;;5056754;28;19908;-80
2023/12/24 12:41:13;;;;;;;;;;;13.50;99.90;;;;;;5074716;28;20038;-75
2023/12/24 12:43:40;;;;;;;;;;;13.60;99.90;;;;;;5056970;28;19970;-79
2023/12/24 12:46:05;;;;;;;;;;;13.90;99.90;;;;;;5056602;28;19916;-79
2023/12/24 12:48:31;;;;;;;;;;;13.90;99.90;;;;;;5056273;28;19909;-75
2023/12/24 12:50:56;;;;;;;;;;;14.00;99.90;;;;;;5055737;28;20278;-75
2023/12/24 12:53:23;;;;;;;;;;;14.10;99.90;;;;;;5056869;28;20003;-75
2023/12/24 12:55:49;;;;;;;;;;;14.00;99.90;;;;;;5074207;28;19908;-79
2023/12/24 12:58:14;;;;;;;;;;;14.00;99.90;;;;;;5056325;28;20398;-76
2023/12/24 13:00:40;;;;;;;;;;;14.10;99.90;;;;;;5056515;28;19916;-75
2023/12/24 13:03:09;;;;;;;;;;;14.00;99.90;;;;;;5074434;28;19908;-80
2023/12/24 13:05:35;;;;;;;;;;;13.90;99.90;;;;;;5056004;28;19913;-79
2023/12/24 13:08:11;;;;;;;;;;;13.90;99.90;;;;;;5056185;28;20018;-78
2023/12/24 13:10:38;;;;;;;;;;;13.60;99.90;;;;;;5055815;28;19924;-75
2023/12/24 13:13:04;;;;;;;;;;;13.90;99.90;;;;;;5056297;28;19912;-80
2023/12/24 13:15:30;;;;;;;;;;;14.00;99.90;;;;;;5056774;28;19909;-75
2023/12/24 13:18:11;;;;;;;;;;;14.10;99.90;;;;;;5056837;28;20336;-80
2023/12/24 13:20:37;;;;;;;;;;;14.00;99.90;;;;;;5056060;28;19909;-79
2023/12/24 13:23:02;;;;;;;;;;;14.10;99.90;;;;;;5068853;28;20367;-79
2023/12/24 13:25:30;;;;;;;;;;;14.20;99.90;;;;;;5053995;28;19909;-75
2023/12/24 13:27:56;;;;;;;;;;;14.20;99.90;;;;;;5035944;28;20334;-75
2023/12/24 13:30:21;;;;;;;;;;;14.60;99.90;;;;;;5053922;28;19920;-80
2023/12/24 13:32:47;;;;;;;;;;;14.90;99.90;;;;;;5052227;28;19909;-75
2023/12/24 13:35:12;;;;;;;;;;;14.70;99.90;;;;;;5076988;28;19913;-75
2023/12/24 13:37:38;;;;;;;;;;;14.90;99.90;;;;;;5076085;28;19951;-80
2023/12/24 13:40:03;;;;;;;;;;;14.70;99.90;;;;;;5093176;28;19962;-79
2023/12/24 13:42:29;;;;;;;;;;;14.80;99.90;;;;;;5075481;28;19908;-75
2023/12/24 13:44:54;;;;;;;;;;;14.80;99.90;;;;;;5094126;28;19934;-80
2023/12/24 13:47:23;;;;;;;;;;;14.70;99.90;;;;;;5094306;28;19908;-75
2023/12/24 13:49:48;;;;;;;;;;;14.50;99.90;;;;;;5075770;28;19920;-78
2023/12/24 13:52:14;;;;;;;;;;;14.50;99.90;;;;;;5066276;28;19908;-75
2023/12/24 13:54:39;;;;;;;;;;;14.50;99.90;;;;;;5055497;28;19912;-79
2023/12/24 13:57:07;;;;;;;;;;;14.40;99.90;;;;;;5068909;28;19919;-79
2023/12/24 13:59:33;;;;;;;;;;;14.40;99.90;;;;;;5075744;28;19908;-75
2023/12/24 14:01:58;;;;;;;;;;;14.30;99.90;;;;;;5093945;28;20452;-75
2023/12/24 14:04:26;;;;;;;;;;;14.20;99.90;;;;;;5073882;28;19908;-75
2023/12/24 14:06:52;;;;;;;;;;;14.00;99.90;;;;;;5055399;28;19912;-75
2023/12/24 14:09:17;;;;;;;;;;;14.20;99.90;;;;;;5057803;28;20371;-75
2023/12/24 14:11:45;;;;;;;;;;;14.10;99.90;;;;;;5077501;28;19919;-79